Time;durP1;ratioP1;P1;durP2;ratioP2;P2;SDS_P1;SDS_P2;PMS_P1;PMS_P2;Temp;Humidity;BMP_temperature;BMP_pressure;BME280_temperature;BME280_humidity;BME280_pressure;Samples;Min_cycle;Max_cycle;Signal;HPM_P1;HPM_P2
2023/01/08 00:02:01;;;;;;;67.97;38.33;;;5.50;99.90;;;;;;5053607;28;20052;-67
2023/01/08 00:04:27;;;;;;;85.20;36.38;;;5.50;99.90;;;;;;5053430;28;20025;-67
2023/01/08 00:06:52;;;;;;;59.97;37.00;;;5.50;99.90;;;;;;5053641;28;20029;-67
2023/01/08 00:09:18;;;;;;;63.30;39.70;;;5.50;99.90;;;;;;5054025;28;20583;-67
2023/01/08 00:11:43;;;;;;;62.40;38.15;;;5.40;99.90;;;;;;5053703;28;20025;-67
2023/01/08 00:14:10;;;;;;;65.05;38.35;;;5.50;99.90;;;;;;5053453;28;20060;-67
2023/01/08 00:16:36;;;;;;;73.00;39.15;;;5.50;99.90;;;;;;5053860;28;20044;-66
2023/01/08 00:19:02;;;;;;;76.25;39.92;;;5.50;99.90;;;;;;5052757;28;20025;-67
2023/01/08 00:21:28;;;;;;;69.15;38.80;;;5.50;99.90;;;;;;5053605;28;20037;-66
2023/01/08 00:23:54;;;;;;;73.95;40.70;;;5.50;99.90;;;;;;5053216;28;20087;-66
2023/01/08 00:26:20;;;;;;;68.82;39.85;;;5.50;99.90;;;;;;5053517;28;20025;-66
2023/01/08 00:28:46;;;;;;;66.15;39.95;;;5.50;99.90;;;;;;5053273;28;20024;-66
2023/01/08 00:31:12;;;;;;;64.35;37.65;;;5.60;99.90;;;;;;5053192;28;20021;-67
2023/01/08 00:33:39;;;;;;;72.10;40.92;;;5.60;99.90;;;;;;5053050;28;20033;-66
2023/01/08 00:36:11;;;;;;;65.70;40.50;;;5.60;99.90;;;;;;5052987;28;20307;-67
2023/01/08 00:38:37;;;;;;;65.70;39.83;;;5.60;99.90;;;;;;5053443;28;20025;-67
2023/01/08 00:41:03;;;;;;;70.70;41.88;;;5.70;99.90;;;;;;5053141;28;20131;-67
2023/01/08 00:43:29;;;;;;;67.85;40.42;;;5.70;99.90;;;;;;5053333;28;20431;-67
2023/01/08 00:45:54;;;;;;;74.03;40.72;;;5.70;99.90;;;;;;5052596;28;20029;-67
2023/01/08 00:48:24;;;;;;;66.90;39.35;;;5.70;99.90;;;;;;5053293;28;20017;-67
2023/01/08 00:50:50;;;;;;;69.22;40.05;;;5.60;99.90;;;;;;5053193;28;20024;-67
2023/01/08 00:53:17;;;;;;;70.30;40.92;;;5.60;99.90;;;;;;5053156;28;20367;-67
2023/01/08 00:55:43;;;;;;;69.13;41.25;;;5.50;99.90;;;;;;5052842;28;20052;-67
2023/01/08 00:58:08;;;;;;;69.35;40.78;;;5.50;99.90;;;;;;5052723;28;20438;-67
2023/01/08 01:00:34;;;;;;;71.05;40.00;;;5.60;99.90;;;;;;5052781;28;20028;-67
2023/01/08 01:02:59;;;;;;;83.93;39.03;;;5.50;99.90;;;;;;5052577;28;20056;-67
2023/01/08 01:05:25;;;;;;;89.40;40.97;;;5.50;99.90;;;;;;5053108;28;20031;-66
2023/01/08 01:07:51;;;;;;;76.82;41.58;;;5.50;99.90;;;;;;5053236;28;20424;-67
2023/01/08 01:10:17;;;;;;;70.88;40.20;;;5.50;99.90;;;;;;5052880;28;20381;-67
2023/01/08 01:12:43;;;;;;;73.13;40.95;;;5.50;99.90;;;;;;5052414;28;20083;-67
2023/01/08 01:15:12;;;;;;;71.63;41.03;;;5.50;99.90;;;;;;5052429;28;20529;-67
2023/01/08 01:17:40;;;;;;;73.50;39.30;;;5.40;99.90;;;;;;5052738;28;20029;-66
2023/01/08 01:20:08;;;;;;;83.15;41.53;;;5.40;99.90;;;;;;5052347;28;20060;-67
2023/01/08 01:22:34;;;;;;;72.15;40.95;;;5.40;99.90;;;;;;5052672;28;20021;-66
2023/01/08 01:25:00;;;;;;;70.97;40.10;;;5.30;99.90;;;;;;5052262;28;20025;-67
2023/01/08 01:27:26;;;;;;;82.88;40.83;;;5.30;99.90;;;;;;5052760;28;20032;-66
2023/01/08 01:29:52;;;;;;;74.57;40.50;;;5.30;99.90;;;;;;5052621;28;20461;-66
2023/01/08 01:32:18;;;;;;;73.57;42.47;;;5.30;99.90;;;;;;5052199;28;20021;-66
2023/01/08 01:34:44;;;;;;;70.90;40.70;;;5.30;99.90;;;;;;5052646;28;20028;-66
2023/01/08 01:37:13;;;;;;;75.70;40.53;;;5.30;99.90;;;;;;5051941;28;20025;-66
2023/01/08 01:39:42;;;;;;;85.97;42.50;;;5.30;99.90;;;;;;5052562;28;20049;-68
2023/01/08 01:45:25;;;;;;;72.93;39.72;;;5.20;99.90;;;;;;5052135;28;20428;-70
2023/01/08 01:47:59;;;;;;;75.88;39.28;;;5.20;99.90;;;;;;5052681;28;20021;-68
2023/01/08 01:50:47;;;;;;;74.82;40.88;;;5.20;99.90;;;;;;5052487;28;20029;-67
2023/01/08 01:53:33;;;;;;;72.30;39.75;;;5.20;99.90;;;;;;5052056;28;20033;-67
2023/01/08 01:56:00;;;;;;;76.03;40.85;;;5.20;99.90;;;;;;5052087;28;20040;-67
2023/01/08 01:58:30;;;;;;;80.45;40.10;;;5.20;99.90;;;;;;5052329;28;20381;-67
2023/01/08 02:00:59;;;;;;;78.35;41.13;;;5.20;99.90;;;;;;5052125;28;20111;-68
2023/01/08 02:03:29;;;;;;;74.07;41.17;;;5.20;99.90;;;;;;5051906;28;20037;-66
2023/01/08 02:06:22;;;;;;;70.20;39.95;;;5.20;99.90;;;;;;5052173;28;20090;-66
2023/01/08 02:09:13;;;;;;;78.53;42.83;;;5.20;99.90;;;;;;5052412;28;20031;-66
2023/01/08 02:12:15;;;;;;;81.60;43.87;;;5.20;99.90;;;;;;5052248;28;20057;-66
2023/01/08 02:15:20;;;;;;;72.90;40.13;;;5.20;99.90;;;;;;5052175;28;20040;-65
2023/01/08 02:18:01;;;;;;;84.47;41.20;;;5.20;99.90;;;;;;5052134;28;20025;-68
2023/01/08 02:20:39;;;;;;;79.57;40.90;;;5.20;99.90;;;;;;5052189;28;20029;-66
2023/01/08 02:23:26;;;;;;;74.10;41.75;;;5.10;99.90;;;;;;5051535;28;20098;-66
2023/01/08 02:26:07;;;;;;;80.53;43.25;;;5.10;99.90;;;;;;5052051;28;20036;-66
2023/01/08 02:28:38;;;;;;;78.63;42.80;;;5.10;99.90;;;;;;5052131;28;20025;-67
2023/01/08 02:31:05;;;;;;;82.35;42.38;;;5.10;99.90;;;;;;5051765;28;20044;-67
2023/01/08 02:33:31;;;;;;;79.10;40.60;;;5.10;99.90;;;;;;5051972;28;20029;-67
2023/01/08 02:36:20;;;;;;;70.22;41.47;;;5.10;99.90;;;;;;5052050;28;20101;-67
2023/01/08 02:39:19;;;;;;;79.60;44.08;;;5.10;99.90;;;;;;5051829;28;20037;-68
2023/01/08 02:42:04;;;;;;;78.70;42.30;;;5.10;99.90;;;;;;5052027;28;20170;-67
2023/01/08 02:44:32;;;;;;;77.68;41.67;;;5.20;99.90;;;;;;5055095;28;20520;-67
2023/01/08 02:47:01;;;;;;;76.00;41.85;;;5.20;99.90;;;;;;5055519;28;20083;-67
2023/01/08 02:49:31;;;;;;;78.30;42.60;;;5.20;99.90;;;;;;5055589;28;20029;-67
2023/01/08 02:51:59;;;;;;;74.88;39.90;;;5.20;99.90;;;;;;5055353;28;20025;-66
2023/01/08 02:54:28;;;;;;;76.00;40.15;;;5.10;99.90;;;;;;5055351;28;20028;-66
2023/01/08 02:57:00;;;;;;;74.65;38.35;;;5.10;99.90;;;;;;5055027;28;20029;-66
2023/01/08 02:59:28;;;;;;;72.05;39.42;;;5.00;99.90;;;;;;5055350;28;20056;-66
2023/01/08 03:01:54;;;;;;;69.07;38.70;;;5.10;99.90;;;;;;5055229;28;20458;-66
2023/01/08 03:04:23;;;;;;;73.22;39.88;;;5.10;99.90;;;;;;5054725;28;20052;-68
2023/01/08 03:06:49;;;;;;;71.47;38.67;;;5.10;99.90;;;;;;5055227;28;20116;-67
2023/01/08 03:09:16;;;;;;;72.43;37.97;;;5.10;99.90;;;;;;5054608;28;20018;-66
2023/01/08 03:12:07;;;;;;;70.22;38.78;;;5.10;99.90;;;;;;5055017;28;20029;-66
2023/01/08 03:14:42;;;;;;;65.90;36.00;;;5.00;99.90;;;;;;5055133;28;20064;-66
2023/01/08 03:17:29;;;;;;;69.00;38.50;;;5.00;99.90;;;;;;5054633;28;20025;-66
2023/01/08 03:20:07;;;;;;;73.50;38.47;;;5.00;99.90;;;;;;5055058;28;20052;-66
2023/01/08 03:22:36;;;;;;;80.75;39.03;;;5.00;99.90;;;;;;5054688;28;20377;-66
2023/01/08 03:25:04;;;;;;;72.70;40.95;;;4.90;99.90;;;;;;5054372;28;20033;-67
2023/01/08 03:27:33;;;;;;;86.72;39.22;;;4.90;99.90;;;;;;5054718;28;20457;-66
2023/01/08 03:30:00;;;;;;;75.38;39.22;;;4.90;99.90;;;;;;5054688;28;20040;-65
2023/01/08 03:32:29;;;;;;;77.57;39.45;;;4.90;99.90;;;;;;5053883;28;20029;-68
2023/01/08 03:34:57;;;;;;;89.10;40.30;;;4.90;99.90;;;;;;5054651;28;20064;-66
2023/01/08 03:37:28;;;;;;;76.38;37.95;;;4.90;99.90;;;;;;5054135;28;20086;-66
2023/01/08 03:40:00;;;;;;;74.43;38.13;;;4.90;99.90;;;;;;5054190;28;20051;-66
2023/01/08 03:42:29;;;;;;;74.25;39.25;;;4.80;99.90;;;;;;5054098;28;20261;-66
2023/01/08 03:44:55;;;;;;;91.13;39.83;;;4.90;99.90;;;;;;5054192;28;20028;-66
2023/01/08 03:47:23;;;;;;;73.20;39.05;;;4.80;99.90;;;;;;5054027;28;20111;-66
2023/01/08 03:49:51;;;;;;;81.72;37.38;;;4.80;99.90;;;;;;5054201;28;20440;-66
2023/01/08 03:52:25;;;;;;;82.93;37.85;;;4.80;99.90;;;;;;5053450;28;20033;-68
2023/01/08 03:54:51;;;;;;;83.47;40.90;;;4.80;99.90;;;;;;5053141;28;20034;-67
2023/01/08 03:57:17;;;;;;;90.30;38.72;;;4.80;99.90;;;;;;5053862;28;20122;-67
2023/01/08 03:59:42;;;;;;;88.38;39.50;;;4.80;99.90;;;;;;5052821;28;20450;-67
2023/01/08 04:02:08;;;;;;;87.53;40.08;;;4.80;99.90;;;;;;5053666;28;20036;-68
2023/01/08 04:04:34;;;;;;;95.38;40.08;;;4.80;99.90;;;;;;5054472;28;20112;-67
2023/01/08 04:06:59;;;;;;;74.28;39.15;;;4.80;99.90;;;;;;5054021;28;20025;-67
2023/01/08 04:09:25;;;;;;;73.45;40.05;;;4.90;99.90;;;;;;5052147;28;20033;-67
2023/01/08 04:11:51;;;;;;;73.22;37.78;;;4.90;99.90;;;;;;5053334;28;20028;-67
2023/01/08 04:14:17;;;;;;;78.82;38.60;;;4.90;99.90;;;;;;5053374;28;20040;-67
2023/01/08 04:16:44;;;;;;;89.38;39.47;;;4.90;99.90;;;;;;5053327;28;20029;-68
2023/01/08 04:19:10;;;;;;;80.88;37.15;;;4.90;99.90;;;;;;5053412;28;20029;-68
2023/01/08 04:21:36;;;;;;;82.60;38.05;;;4.90;99.90;;;;;;5053608;28;20075;-67
2023/01/08 04:24:02;;;;;;;82.53;37.17;;;4.80;99.90;;;;;;5053730;28;20033;-67
2023/01/08 04:26:28;;;;;;;71.78;36.80;;;4.80;99.90;;;;;;5053152;28;20029;-67
2023/01/08 04:28:53;;;;;;;107.28;37.33;;;4.90;99.90;;;;;;5053675;28;20355;-67
2023/01/08 04:31:19;;;;;;;87.13;36.60;;;4.90;99.90;;;;;;5053497;28;20051;-67
2023/01/08 04:33:45;;;;;;;89.05;36.80;;;4.90;99.90;;;;;;5053402;28;20132;-67
2023/01/08 04:36:10;;;;;;;77.00;36.00;;;4.90;99.90;;;;;;5053078;28;20457;-68
2023/01/08 04:38:36;;;;;;;70.03;33.63;;;4.90;99.90;;;;;;5053162;28;20056;-67
2023/01/08 04:41:02;;;;;;;75.10;35.25;;;4.80;99.90;;;;;;5053363;28;20041;-67
2023/01/08 04:43:29;;;;;;;72.10;35.60;;;4.90;99.90;;;;;;5052954;28;20051;-66
2023/01/08 04:45:59;;;;;;;85.05;35.45;;;4.90;99.90;;;;;;5053185;28;20028;-66
2023/01/08 04:48:25;;;;;;;88.97;35.00;;;4.90;99.90;;;;;;5052502;28;20382;-67
2023/01/08 04:50:51;;;;;;;70.80;35.30;;;4.80;99.90;;;;;;5052824;28;20021;-67
2023/01/08 04:53:16;;;;;;;73.63;34.42;;;4.90;99.90;;;;;;5052681;28;20078;-67
2023/01/08 04:55:42;;;;;;;70.95;35.60;;;4.80;99.90;;;;;;5053197;28;20041;-67
2023/01/08 04:58:07;;;;;;;73.45;35.08;;;4.80;99.90;;;;;;5052756;28;20463;-67
2023/01/08 05:00:33;;;;;;;79.18;36.67;;;4.80;99.90;;;;;;5052826;28;20028;-67
2023/01/08 05:02:59;;;;;;;73.32;34.35;;;4.70;99.90;;;;;;5052988;28;20024;-66
2023/01/08 05:05:25;;;;;;;80.90;36.35;;;4.80;99.90;;;;;;5052284;28;20036;-67
2023/01/08 05:07:51;;;;;;;71.30;35.50;;;4.80;99.90;;;;;;5052931;28;20032;-67
2023/01/08 05:10:17;;;;;;;79.90;37.30;;;4.80;99.90;;;;;;5052567;28;20040;-66
2023/01/08 05:12:42;;;;;;;78.53;37.85;;;4.70;99.90;;;;;;5052599;28;20484;-67
2023/01/08 05:15:08;;;;;;;90.40;37.22;;;4.70;99.90;;;;;;5052794;28;20040;-67
2023/01/08 05:17:34;;;;;;;87.82;36.97;;;4.70;99.90;;;;;;5052435;28;20028;-67
2023/01/08 05:20:00;;;;;;;91.75;37.17;;;4.70;99.90;;;;;;5052775;28;20031;-67
2023/01/08 05:22:25;;;;;;;79.78;36.60;;;4.70;99.90;;;;;;5052052;28;20105;-67
2023/01/08 05:24:51;;;;;;;105.63;37.30;;;4.70;99.90;;;;;;5052331;28;20082;-67
2023/01/08 05:27:16;;;;;;;96.88;38.22;;;4.70;99.90;;;;;;5052340;28;20017;-67
2023/01/08 05:29:42;;;;;;;82.50;36.03;;;4.60;99.90;;;;;;5052545;28;20029;-67
2023/01/08 05:32:16;;;;;;;70.72;37.05;;;4.60;99.90;;;;;;5052566;28;20100;-67
2023/01/08 05:34:43;;;;;;;97.80;36.80;;;4.60;99.90;;;;;;5052344;28;20036;-67
2023/01/08 05:37:08;;;;;;;100.40;36.83;;;4.60;99.90;;;;;;5052477;28;20036;-67
2023/01/08 05:39:34;;;;;;;91.05;36.50;;;4.60;99.90;;;;;;5051640;28;20478;-67
2023/01/08 05:42:01;;;;;;;94.10;38.40;;;4.60;99.90;;;;;;5052446;28;20029;-67
2023/01/08 05:44:26;;;;;;;89.75;38.00;;;4.60;99.90;;;;;;5052092;28;20071;-67
2023/01/08 05:46:52;;;;;;;91.03;38.22;;;4.60;99.90;;;;;;5052386;28;20033;-67
2023/01/08 05:49:20;;;;;;;107.05;38.67;;;4.60;99.90;;;;;;5052114;28;20051;-67
2023/01/08 05:51:47;;;;;;;84.53;37.53;;;4.50;99.90;;;;;;5052392;28;20021;-67
2023/01/08 05:54:12;;;;;;;84.00;36.67;;;4.50;99.90;;;;;;5051794;28;20474;-71
2023/01/08 05:56:38;;;;;;;91.60;36.42;;;4.50;99.90;;;;;;5052276;28;20029;-67
2023/01/08 05:59:04;;;;;;;82.13;37.42;;;4.50;99.90;;;;;;5051981;28;20053;-67
2023/01/08 06:01:31;;;;;;;83.75;36.08;;;4.50;99.90;;;;;;5051833;28;20025;-67
2023/01/08 06:03:58;;;;;;;88.35;35.83;;;4.50;99.90;;;;;;5052292;28;20025;-67
2023/01/08 06:06:24;;;;;;;75.25;36.38;;;4.50;99.90;;;;;;5051729;28;20056;-67
2023/01/08 06:08:49;;;;;;;83.38;35.92;;;4.50;99.90;;;;;;5051920;28;20029;-66
2023/01/08 06:11:15;;;;;;;101.53;36.13;;;4.50;99.90;;;;;;5051319;28;20082;-67
2023/01/08 06:13:43;;;;;;;83.85;36.05;;;4.50;99.90;;;;;;5052222;28;20032;-67
2023/01/08 06:16:09;;;;;;;86.85;35.80;;;4.50;99.90;;;;;;5052292;28;20079;-67
2023/01/08 06:18:35;;;;;;;83.30;33.50;;;4.50;99.90;;;;;;5053266;28;20037;-66
2023/01/08 06:21:01;;;;;;;92.00;32.70;;;4.50;99.90;;;;;;5056108;28;20032;-66
2023/01/08 06:23:27;;;;;;;68.85;35.00;;;4.40;99.90;;;;;;5055585;28;20390;-67
2023/01/08 06:25:55;;;;;;;79.55;34.03;;;4.40;99.90;;;;;;5055955;28;20112;-67
2023/01/08 06:28:21;;;;;;;77.50;35.28;;;4.40;99.90;;;;;;5055454;28;20465;-66
2023/01/08 06:30:46;;;;;;;66.75;33.55;;;4.40;99.90;;;;;;5055842;28;20025;-66
2023/01/08 06:33:12;;;;;;;78.15;34.80;;;4.40;99.90;;;;;;5054364;28;20033;-67
2023/01/08 06:35:38;;;;;;;96.60;34.58;;;4.40;99.90;;;;;;5055278;28;20056;-67
2023/01/08 06:38:03;;;;;;;103.97;35.58;;;4.40;99.90;;;;;;5055920;28;20024;-67
2023/01/08 06:40:29;;;;;;;75.13;35.95;;;4.50;99.90;;;;;;5054825;28;20049;-67
2023/01/08 06:42:55;;;;;;;79.05;35.20;;;4.40;99.90;;;;;;5055618;28;20111;-68
2023/01/08 06:45:21;;;;;;;80.00;36.30;;;4.50;99.90;;;;;;5054844;28;20478;-68
2023/01/08 06:47:47;;;;;;;80.07;37.08;;;4.50;99.90;;;;;;5055714;28;20079;-66
2023/01/08 06:50:13;;;;;;;88.63;37.80;;;4.50;99.90;;;;;;5055484;28;20021;-66
2023/01/08 06:52:38;;;;;;;92.35;37.80;;;4.50;99.90;;;;;;5054910;28;20087;-66
2023/01/08 06:55:05;;;;;;;86.97;36.58;;;4.50;99.90;;;;;;5055432;28;20032;-67
2023/01/08 06:57:31;;;;;;;100.38;36.75;;;4.60;99.90;;;;;;5055070;28;20511;-67
2023/01/08 06:59:56;;;;;;;74.28;35.00;;;4.50;99.90;;;;;;5055615;28;20119;-67
2023/01/08 07:02:22;;;;;;;73.03;34.72;;;4.50;99.90;;;;;;5054691;28;20461;-66
2023/01/08 07:04:48;;;;;;;86.28;35.08;;;4.50;99.90;;;;;;5055132;28;20035;-67
2023/01/08 07:07:14;;;;;;;102.43;36.15;;;4.50;99.90;;;;;;5054026;28;20082;-67
2023/01/08 07:09:41;;;;;;;106.40;37.17;;;4.40;99.90;;;;;;5054378;28;20032;-67
2023/01/08 07:12:13;;;;;;;76.68;35.88;;;4.30;99.90;;;;;;5054988;28;20060;-67
2023/01/08 07:14:39;;;;;;;81.18;36.03;;;4.30;99.90;;;;;;5054709;28;20040;-67
2023/01/08 07:17:05;;;;;;;75.53;35.72;;;4.30;99.90;;;;;;5055223;28;20051;-67
2023/01/08 07:19:31;;;;;;;70.82;33.13;;;4.30;99.90;;;;;;5054507;28;20454;-67
2023/01/08 07:21:57;;;;;;;81.13;34.22;;;4.30;99.90;;;;;;5054872;28;20117;-67
2023/01/08 07:24:23;;;;;;;84.70;34.20;;;4.20;99.90;;;;;;5053191;28;20351;-66
2023/01/08 07:26:48;;;;;;;64.40;31.77;;;4.20;99.90;;;;;;5054993;28;20381;-67
2023/01/08 07:29:14;;;;;;;78.82;32.45;;;4.20;99.90;;;;;;5054613;28;20029;-67
2023/01/08 07:31:39;;;;;;;69.15;32.20;;;4.30;99.90;;;;;;5052982;28;20047;-67
2023/01/08 07:34:05;;;;;;;71.10;33.25;;;4.30;99.90;;;;;;5054650;28;20036;-67
2023/01/08 07:36:31;;;;;;;74.00;32.33;;;4.20;99.90;;;;;;5054556;28;20036;-67
2023/01/08 07:38:56;;;;;;;68.80;32.00;;;4.30;99.90;;;;;;5054590;28;20063;-67
2023/01/08 07:41:22;;;;;;;60.10;31.90;;;4.30;99.90;;;;;;5054189;28;20051;-68
2023/01/08 07:43:48;;;;;;;68.30;31.67;;;4.30;99.90;;;;;;5054257;28;20056;-67
2023/01/08 07:46:14;;;;;;;77.05;32.15;;;4.30;99.90;;;;;;5054209;28;20382;-67
2023/01/08 07:48:40;;;;;;;65.25;31.73;;;4.30;99.90;;;;;;5053749;28;20462;-67
2023/01/08 07:51:07;;;;;;;66.78;31.40;;;4.30;99.90;;;;;;5054353;28;20070;-67
2023/01/08 07:53:34;;;;;;;71.22;31.95;;;4.30;99.90;;;;;;5053582;28;20398;-67
2023/01/08 07:56:07;;;;;;;72.18;32.33;;;4.30;99.90;;;;;;5054339;28;20056;-67
2023/01/08 07:58:33;;;;;;;70.43;31.95;;;4.30;99.90;;;;;;5052628;28;20040;-67
2023/01/08 08:00:59;;;;;;;70.97;32.40;;;4.30;99.90;;;;;;5053089;28;20381;-67
2023/01/08 08:03:25;;;;;;;67.70;30.63;;;4.30;99.90;;;;;;5053723;28;20029;-68
2023/01/08 08:05:51;;;;;;;76.50;33.05;;;4.40;99.90;;;;;;5054200;28;20033;-67
2023/01/08 08:08:17;;;;;;;73.30;33.40;;;4.40;99.90;;;;;;5054013;28;20029;-68
2023/01/08 08:10:43;;;;;;;70.25;32.70;;;4.40;99.90;;;;;;5053565;28;20028;-67
2023/01/08 08:13:09;;;;;;;72.00;34.38;;;4.40;99.90;;;;;;5053305;28;20028;-67
2023/01/08 08:15:36;;;;;;;72.40;33.38;;;4.30;99.90;;;;;;5052260;28;20029;-66
2023/01/08 08:18:03;;;;;;;77.82;33.97;;;4.30;99.90;;;;;;5053419;28;20075;-66
2023/01/08 08:20:29;;;;;;;74.50;32.58;;;4.30;99.90;;;;;;5053675;28;20029;-66
2023/01/08 08:23:06;;;;;;;64.03;31.02;;;4.40;99.90;;;;;;5053437;28;20033;-68
2023/01/08 08:25:32;;;;;;;78.45;32.83;;;4.30;99.90;;;;;;5052996;28;20466;-66
2023/01/08 08:27:59;;;;;;;76.93;33.78;;;4.30;99.90;;;;;;5053736;28;20100;-68
2023/01/08 08:30:26;;;;;;;82.85;32.97;;;4.30;99.90;;;;;;5053237;28;20032;-66
2023/01/08 08:32:53;;;;;;;67.18;32.78;;;4.30;99.90;;;;;;5053625;28;20116;-67
2023/01/08 08:35:18;;;;;;;87.68;32.72;;;4.30;99.90;;;;;;5052174;28;20029;-67
2023/01/08 08:37:44;;;;;;;83.50;33.50;;;4.30;99.90;;;;;;5053017;28;20819;-67
2023/01/08 08:40:10;;;;;;;77.78;32.30;;;4.30;99.90;;;;;;5052827;28;20098;-66
2023/01/08 08:42:36;;;;;;;75.28;31.35;;;4.30;99.90;;;;;;5052894;28;20124;-67
2023/01/08 08:45:01;;;;;;;86.28;32.38;;;4.40;99.90;;;;;;5053337;28;20040;-66
2023/01/08 08:47:27;;;;;;;85.00;31.65;;;4.40;99.90;;;;;;5052791;28;20500;-67
2023/01/08 08:49:52;;;;;;;79.30;33.33;;;4.30;99.90;;;;;;5053393;28;20050;-67
2023/01/08 08:52:19;;;;;;;75.88;32.70;;;4.40;99.90;;;;;;5052996;28;20044;-67
2023/01/08 08:54:44;;;;;;;75.38;32.30;;;4.40;99.90;;;;;;5052897;28;20480;-67
2023/01/08 08:57:10;;;;;;;73.78;32.38;;;4.40;99.90;;;;;;5053278;28;20025;-67
2023/01/08 08:59:36;;;;;;;84.97;33.97;;;4.40;99.90;;;;;;5052688;28;20040;-68
2023/01/08 09:02:03;;;;;;;71.57;32.97;;;4.40;99.90;;;;;;5053061;28;20032;-66
2023/01/08 09:04:30;;;;;;;74.50;32.97;;;4.50;99.90;;;;;;5052774;28;20037;-66
2023/01/08 09:06:56;;;;;;;82.65;33.05;;;4.50;99.90;;;;;;5052920;28;20029;-67
2023/01/08 09:09:21;;;;;;;71.63;33.10;;;4.50;99.90;;;;;;5053176;28;20059;-67
2023/01/08 09:11:47;;;;;;;68.40;33.60;;;4.50;99.90;;;;;;5052442;28;20029;-66
2023/01/08 09:14:13;;;;;;;70.30;32.67;;;4.60;99.90;;;;;;5052747;28;20043;-67
2023/01/08 09:16:38;;;;;;;68.65;31.10;;;4.60;99.90;;;;;;5052138;28;20503;-68
2023/01/08 09:19:05;;;;;;;64.55;30.42;;;4.60;99.90;;;;;;5052848;28;20063;-67
2023/01/08 09:21:31;;;;;;;66.57;31.02;;;4.60;99.90;;;;;;5052380;28;20346;-68
2023/01/08 09:23:56;;;;;;;64.20;30.92;;;4.60;99.90;;;;;;5052497;28;20029;-67
2023/01/08 09:26:22;;;;;;;75.00;31.27;;;4.60;99.90;;;;;;5052697;28;20021;-67
2023/01/08 09:28:48;;;;;;;84.82;32.17;;;4.60;99.90;;;;;;5051872;28;20413;-67
2023/01/08 09:31:13;;;;;;;66.70;32.10;;;4.60;99.90;;;;;;5052751;28;20032;-67
2023/01/08 09:33:39;;;;;;;69.22;30.70;;;4.60;99.90;;;;;;5052401;28;20037;-67
2023/01/08 09:36:11;;;;;;;77.13;31.10;;;4.70;99.90;;;;;;5052969;28;20025;-68
2023/01/08 09:38:37;;;;;;;65.60;30.75;;;4.70;99.90;;;;;;5052521;28;20033;-66
2023/01/08 09:41:07;;;;;;;70.18;30.52;;;4.70;99.90;;;;;;5052603;28;20049;-67
2023/01/08 09:43:36;;;;;;;68.85;30.02;;;4.70;99.90;;;;;;5052053;28;20029;-66
2023/01/08 09:46:05;;;;;;;70.32;30.00;;;4.70;99.90;;;;;;5053003;28;20025;-66
2023/01/08 09:48:38;;;;;;;68.97;31.58;;;4.70;99.90;;;;;;5055113;28;20049;-67
2023/01/08 09:51:12;;;;;;;71.40;30.85;;;4.70;99.90;;;;;;5054457;28;20108;-67
2023/01/08 09:53:38;;;;;;;66.72;29.80;;;4.70;99.90;;;;;;5057383;28;20389;-67
2023/01/08 09:56:14;;;;;;;58.80;29.63;;;4.80;99.90;;;;;;5058890;28;20079;-67
2023/01/08 09:58:42;;;;;;;62.65;28.35;;;4.80;99.90;;;;;;5057833;28;20035;-66
2023/01/08 10:01:12;;;;;;;63.53;27.95;;;4.80;99.90;;;;;;5057844;28;20470;-67
2023/01/08 10:03:44;;;;;;;60.17;29.05;;;4.80;99.90;;;;;;5057550;28;20036;-67
2023/01/08 10:06:12;;;;;;;64.13;29.27;;;4.80;99.90;;;;;;5057226;28;20024;-66
2023/01/08 10:08:38;;;;;;;60.47;28.45;;;4.80;99.90;;;;;;5056171;28;20029;-67
2023/01/08 10:11:06;;;;;;;57.58;28.08;;;4.80;99.90;;;;;;5056752;28;20017;-69
2023/01/08 10:13:33;;;;;;;65.68;30.33;;;4.80;99.90;;;;;;5055767;28;20029;-73
2023/01/08 10:15:59;;;;;;;62.45;28.95;;;4.70;99.90;;;;;;5056441;28;20037;-67
2023/01/08 10:18:27;;;;;;;62.63;29.00;;;4.70;99.90;;;;;;5056189;28;20029;-67
2023/01/08 10:20:53;;;;;;;59.05;29.70;;;4.70;99.90;;;;;;5055095;28;20052;-67
2023/01/08 10:23:21;;;;;;;64.25;29.88;;;4.70;99.90;;;;;;5054702;28;20466;-67
2023/01/08 10:25:49;;;;;;;63.33;30.27;;;4.70;99.90;;;;;;5055612;28;20527;-68
2023/01/08 10:28:20;;;;;;;60.72;28.05;;;4.70;99.90;;;;;;5055873;28;20021;-67
2023/01/08 10:30:45;;;;;;;;;;;4.70;99.90;;;;;;5056495;28;20056;-67
2023/01/08 10:33:23;;;;;;;61.03;28.38;;;4.70;99.90;;;;;;5055917;28;20372;-67
2023/01/08 10:35:59;;;;;;;64.25;28.40;;;4.80;99.90;;;;;;5054166;28;20037;-67
2023/01/08 10:38:34;;;;;;;63.10;30.45;;;4.80;99.90;;;;;;5055914;28;20025;-67
2023/01/08 10:41:04;;;;;;;66.40;30.60;;;4.80;99.90;;;;;;5056089;28;20096;-67
2023/01/08 10:43:40;;;;;;;59.43;28.13;;;4.80;99.90;;;;;;5055721;28;20040;-67
2023/01/08 10:46:12;;;;;;;69.60;30.20;;;4.80;99.90;;;;;;5055559;28;20466;-67
2023/01/08 10:48:45;;;;;;;60.35;29.30;;;4.90;99.90;;;;;;5055414;28;20017;-68
2023/01/08 10:51:25;;;;;;;68.05;30.25;;;4.90;99.90;;;;;;5055758;28;20355;-67
2023/01/08 10:53:52;;;;;;;61.73;29.90;;;4.90;99.90;;;;;;5053939;28;20037;-67
2023/01/08 10:56:24;;;;;;;64.45;29.20;;;5.00;99.90;;;;;;5055559;28;20377;-67
2023/01/08 10:58:50;;;;;;;61.38;28.52;;;5.00;99.90;;;;;;5055115;28;20033;-67
2023/01/08 11:01:27;;;;;;;60.60;28.77;;;5.00;99.90;;;;;;5055143;28;20029;-67
2023/01/08 11:03:59;;;;;;;57.13;27.58;;;5.00;99.90;;;;;;5054407;28;20036;-67
2023/01/08 11:06:30;;;;;;;48.40;25.15;;;5.00;99.90;;;;;;5055227;28;20036;-67
2023/01/08 11:09:02;;;;;;;56.10;27.75;;;5.10;99.90;;;;;;5054911;28;20116;-67
2023/01/08 11:11:36;;;;;;;51.85;25.40;;;5.10;99.90;;;;;;5054782;28;20362;-67
2023/01/08 11:14:04;;;;;;;56.72;27.20;;;5.10;99.90;;;;;;5054906;28;20091;-67
2023/01/08 11:16:34;;;;;;;60.22;27.95;;;5.10;99.90;;;;;;5055124;28;20036;-67
2023/01/08 11:19:00;;;;;;;50.00;26.27;;;5.10;99.90;;;;;;5054457;28;20458;-67
2023/01/08 11:21:30;;;;;;;48.67;26.55;;;5.10;99.90;;;;;;5053716;28;20029;-67
2023/01/08 11:24:18;;;;;;;54.17;27.00;;;5.10;99.90;;;;;;5054294;28;20029;-67
2023/01/08 11:26:56;;;;;;;53.60;26.65;;;5.20;99.90;;;;;;5054798;28;20021;-67
2023/01/08 11:29:51;;;;;;;52.55;24.63;;;5.20;99.90;;;;;;5054652;28;20501;-67
2023/01/08 11:32:47;;;;;;;50.80;24.83;;;5.20;99.90;;;;;;5051419;28;20029;-66
2023/01/08 11:35:49;;;;;;;50.17;24.40;;;5.20;99.90;;;;;;5054976;28;20029;-66
2023/01/08 11:38:15;;;;;;;49.92;25.27;;;5.20;99.90;;;;;;5054473;28;20025;-66
2023/01/08 11:41:16;;;;;;;47.65;24.63;;;5.20;99.90;;;;;;5054676;28;20056;-68
2023/01/08 11:43:48;;;;;;;48.20;24.35;;;5.20;99.90;;;;;;5054311;28;20061;-67
2023/01/08 11:46:19;;;;;;;44.78;24.00;;;5.20;99.90;;;;;;5054675;28;20083;-67
2023/01/08 11:49:12;;;;;;;41.88;23.35;;;5.20;99.90;;;;;;5054104;28;20056;-67
2023/01/08 11:52:06;;;;;;;43.78;23.67;;;5.20;99.90;;;;;;5054087;28;20481;-72
2023/01/08 11:54:32;;;;;;;42.85;22.85;;;5.10;99.90;;;;;;5054097;28;20065;-67
2023/01/08 11:57:00;;;;;;;42.63;22.90;;;5.20;99.90;;;;;;5054039;28;20067;-67
2023/01/08 11:59:57;;;;;;;40.70;21.88;;;5.20;99.90;;;;;;5053891;28;20029;-67
2023/01/08 12:02:52;;;;;;;44.22;23.02;;;5.20;99.90;;;;;;5054206;28;20024;-68
2023/01/08 12:05:45;;;;;;;45.08;23.63;;;5.20;99.90;;;;;;5054237;28;20108;-67
2023/01/08 12:08:20;;;;;;;40.28;22.33;;;5.20;99.90;;;;;;5052785;28;20040;-67
2023/01/08 12:11:06;;;;;;;40.15;21.48;;;5.10;99.90;;;;;;5053393;28;20036;-68
2023/01/08 12:14:00;;;;;;;36.78;21.30;;;5.10;99.90;;;;;;5053526;28;20040;-67
2023/01/08 12:16:41;;;;;;;35.45;19.35;;;5.10;99.90;;;;;;5052928;28;20040;-67
2023/01/08 12:19:15;;;;;;;31.73;18.92;;;5.10;99.90;;;;;;5053910;28;20022;-67
2023/01/08 12:21:55;;;;;;;34.47;19.98;;;5.10;99.90;;;;;;5053330;28;20359;-72
2023/01/08 12:24:32;;;;;;;35.55;18.65;;;5.10;99.90;;;;;;5052856;28;20033;-67
2023/01/08 12:27:35;;;;;;;35.65;20.48;;;5.10;99.90;;;;;;5053292;28;20112;-66
2023/01/08 12:30:06;;;;;;;44.05;23.30;;;5.10;99.90;;;;;;5053396;28;20729;-66
2023/01/08 12:32:38;;;;;;;39.13;21.80;;;5.20;99.90;;;;;;5053805;28;20076;-67
2023/01/08 12:35:14;;;;;;;43.88;24.15;;;5.20;99.90;;;;;;5053329;28;20028;-66
2023/01/08 12:38:01;;;;;;;43.28;22.45;;;5.20;99.90;;;;;;5051773;28;20029;-68
2023/01/08 12:40:31;;;;;;;44.13;23.48;;;5.20;99.90;;;;;;5053507;28;20045;-68
2023/01/08 12:42:59;;;;;;;43.03;23.48;;;5.30;99.90;;;;;;5053086;28;20034;-68
2023/01/08 12:45:34;;;;;;;39.85;21.90;;;5.20;99.90;;;;;;5053307;28;20033;-69
2023/01/08 12:48:07;;;;;;;39.80;21.98;;;5.20;99.90;;;;;;5053065;28;20032;-67
2023/01/08 12:51:07;;;;;;;43.10;22.98;;;5.20;99.90;;;;;;5053399;28;20031;-66
2023/01/08 12:53:51;;;;;;;40.65;22.27;;;5.30;99.90;;;;;;5053330;28;20044;-66